KHWO

North Perry Airport

Hollywood, Florida, USA
METAR KHWO 232253Z 16005KT 10SM FEW035 26/21 A3004 RMK AO2 SLP172 T02560211
Observed Flight Rules
Jan-23 @ 22:53 UTC (35 minutes ago) Visual Flight Rules
Wind Visibility Clouds
160° at 5 knots 10 miles
  • Few at 3,500' AGL
Temperatures Readings
Current 26°C / 79°F
Dewpoint 21°C / 70°F
Humidity 74%
Altimeter 30.04" Hg
Pressure 1017.2 hPa
Elevation 2
METAR KHWO 232253Z 16005KT 10SM FEW035 26/21 A3004 RMK AO2 SLP172 T02560211
Observed Flight Rules
Jan-23 @ 22:53 UTC
(35 minutes ago)
VFR
Wind Visibility
160° at 5 knots 10 miles
Clouds
  • Few at 3,500' AGL
Temperature Dewpoint
26°C / 79°F 21°C / 70°F
Humidity Altimeter Pressure
74% 30.04" Hg 1017.2 hPa